createdAt,value
2017-06-17T00:01:34.783Z,13.40
2017-06-17T00:04:02.304Z,13.40
2017-06-17T00:06:29.827Z,13.40
2017-06-17T00:08:57.369Z,13.40
2017-06-17T00:11:24.882Z,13.40
2017-06-17T00:13:52.741Z,13.40
2017-06-17T00:16:20.375Z,13.30
2017-06-17T00:18:47.923Z,13.30
2017-06-17T00:21:15.461Z,13.30
2017-06-17T00:23:43.743Z,13.30
2017-06-17T00:26:11.285Z,13.30
2017-06-17T00:28:39.602Z,13.30
2017-06-17T00:31:07.370Z,13.30
2017-06-17T00:33:34.893Z,13.30
2017-06-17T00:36:03.227Z,13.20
2017-06-17T00:38:30.730Z,13.20
2017-06-17T00:40:58.238Z,13.20
2017-06-17T00:43:25.799Z,13.20
2017-06-17T00:45:53.315Z,13.20
2017-06-17T00:48:20.859Z,13.20
2017-06-17T00:50:49.134Z,13.10
2017-06-17T00:53:17.680Z,13.10
2017-06-17T00:55:45.200Z,13.10
2017-06-17T00:58:12.728Z,13.10
2017-06-17T01:00:40.501Z,13.10
2017-06-17T01:03:08.774Z,13.10
2017-06-17T01:05:37.088Z,13.10
2017-06-17T01:08:04.610Z,13.10
2017-06-17T01:10:32.155Z,13.10
2017-06-17T01:12:59.679Z,13.10
2017-06-17T01:15:27.214Z,13.00
2017-06-17T01:17:55.018Z,13.00
2017-06-17T01:20:22.563Z,13.00
2017-06-17T01:22:50.077Z,13.00
2017-06-17T01:25:18.385Z,13.00
2017-06-17T01:27:45.908Z,13.00
2017-06-17T01:30:13.446Z,13.00
2017-06-17T01:32:40.960Z,13.00
2017-06-17T01:35:08.511Z,13.00
2017-06-17T01:37:36.020Z,13.00
2017-06-17T01:40:03.595Z,13.00
2017-06-17T01:42:31.107Z,13.00
2017-06-17T01:44:58.611Z,13.10
2017-06-17T01:47:26.155Z,13.10
2017-06-17T01:49:53.667Z,13.10
2017-06-17T01:52:21.224Z,13.10
2017-06-17T01:54:49.037Z,13.10
2017-06-17T01:57:16.572Z,13.10
2017-06-17T01:59:44.102Z,13.00
2017-06-17T02:02:12.376Z,13.10
2017-06-17T02:04:40.701Z,13.10
2017-06-17T02:07:08.220Z,13.10
2017-06-17T02:09:35.735Z,13.10
2017-06-17T02:12:03.323Z,13.10
2017-06-17T02:14:31.604Z,13.00
2017-06-17T02:16:59.906Z,13.00
2017-06-17T02:19:27.430Z,13.00
2017-06-17T02:21:54.979Z,13.10
2017-06-17T02:24:22.487Z,13.00
2017-06-17T02:26:50.069Z,13.10
2017-06-17T02:29:17.847Z,13.00
2017-06-17T02:31:45.391Z,13.00
2017-06-17T02:34:13.270Z,13.00
2017-06-17T02:36:40.788Z,13.00
2017-06-17T02:39:08.300Z,13.00
2017-06-17T02:41:35.834Z,13.00
2017-06-17T02:44:03.387Z,13.00
2017-06-17T02:46:30.953Z,13.00
2017-06-17T02:48:58.479Z,13.00
2017-06-17T02:51:26.019Z,13.00
2017-06-17T02:53:53.539Z,13.00
2017-06-17T02:56:21.070Z,13.00
2017-06-17T02:58:48.589Z,13.00
2017-06-17T03:01:16.121Z,13.10
2017-06-17T03:03:43.630Z,13.10
2017-06-17T03:06:11.947Z,13.10
2017-06-17T03:08:39.464Z,13.10
2017-06-17T03:11:07.738Z,13.10
2017-06-17T03:13:35.287Z,13.00
2017-06-17T03:16:02.900Z,13.10
2017-06-17T03:18:30.872Z,13.10
2017-06-17T03:20:59.678Z,13.10
2017-06-17T03:23:27.214Z,13.10
2017-06-17T03:25:54.739Z,13.10
2017-06-17T03:28:23.040Z,13.10
2017-06-17T03:30:50.578Z,13.10
2017-06-17T03:33:18.889Z,13.10
2017-06-17T03:35:46.450Z,13.10
2017-06-17T03:38:13.954Z,13.10
2017-06-17T03:40:41.719Z,13.10
2017-06-17T03:43:09.279Z,13.10
2017-06-17T03:45:36.875Z,13.10
2017-06-17T03:48:04.395Z,13.10
2017-06-17T03:50:31.930Z,13.10
2017-06-17T03:52:59.445Z,13.20
2017-06-17T03:55:26.974Z,13.10
2017-06-17T03:57:54.536Z,13.10
2017-06-17T04:00:22.045Z,13.20
2017-06-17T04:02:49.600Z,13.20
2017-06-17T04:05:17.387Z,13.20
2017-06-17T04:07:44.924Z,13.20
2017-06-17T04:10:12.430Z,13.20
2017-06-17T04:12:39.992Z,13.20
2017-06-17T04:15:07.503Z,13.20
2017-06-17T04:17:35.292Z,13.20
2017-06-17T04:20:02.853Z,13.20
2017-06-17T04:22:30.371Z,13.20
2017-06-17T04:24:57.912Z,13.20
2017-06-17T04:27:25.427Z,13.30
2017-06-17T04:29:53.008Z,13.30
2017-06-17T04:32:20.855Z,13.30
2017-06-17T04:34:48.372Z,13.30
2017-06-17T04:37:15.912Z,13.30
2017-06-17T04:39:43.443Z,13.30
2017-06-17T04:42:10.998Z,13.30
2017-06-17T04:44:38.866Z,13.30
2017-06-17T04:47:06.372Z,13.30
2017-06-17T04:49:34.684Z,13.40
2017-06-17T04:52:02.203Z,13.40
2017-06-17T04:54:29.772Z,13.40
2017-06-17T04:56:57.283Z,13.40
2017-06-17T04:59:25.145Z,13.50
2017-06-17T05:01:52.661Z,13.50
2017-06-17T05:04:20.188Z,13.50
2017-06-17T05:06:47.740Z,13.50
2017-06-17T05:09:15.255Z,13.50
2017-06-17T05:11:42.815Z,13.50
2017-06-17T05:14:10.341Z,13.50
2017-06-17T05:16:38.657Z,13.60
2017-06-17T05:19:06.176Z,13.50
2017-06-17T05:21:34.483Z,13.60
2017-06-17T05:24:01.996Z,13.60
2017-06-17T05:26:29.534Z,13.60
2017-06-17T05:28:57.046Z,13.60
2017-06-17T05:31:24.597Z,13.70
2017-06-17T05:33:52.884Z,13.80
2017-06-17T05:36:20.420Z,13.80
2017-06-17T05:38:47.937Z,13.80
2017-06-17T05:41:15.693Z,13.80
2017-06-17T05:43:43.199Z,13.90
2017-06-17T05:46:10.755Z,13.80
2017-06-17T05:48:38.596Z,13.80
2017-06-17T05:51:06.116Z,13.80
2017-06-17T05:53:33.664Z,13.90
2017-06-17T05:56:02.195Z,14.00
2017-06-17T05:58:29.755Z,14.00
2017-06-17T06:00:57.271Z,13.90
2017-06-17T06:03:24.824Z,14.00
2017-06-17T06:05:53.109Z,14.00
2017-06-17T06:08:20.654Z,13.90
2017-06-17T06:10:48.939Z,14.00
2017-06-17T06:13:17.266Z,14.00
2017-06-17T06:15:44.779Z,14.00
2017-06-17T06:18:12.300Z,14.00
2017-06-17T06:20:40.066Z,14.00
2017-06-17T06:23:10.635Z,14.00
2017-06-17T06:25:39.271Z,14.00
2017-06-17T06:28:07.761Z,14.00
2017-06-17T06:30:35.407Z,14.00
2017-06-17T06:33:04.439Z,14.10
2017-06-17T06:35:32.131Z,14.10
2017-06-17T06:38:00.689Z,14.00
2017-06-17T06:40:28.206Z,14.00
2017-06-17T06:42:55.746Z,14.10
2017-06-17T06:45:23.263Z,14.20
2017-06-17T06:47:52.823Z,14.10
2017-06-17T06:50:20.457Z,14.20
2017-06-17T06:52:55.574Z,14.10
2017-06-17T06:55:23.216Z,14.20
2017-06-17T07:00:40.540Z,14.30
2017-06-17T07:03:08.153Z,14.30
2017-06-17T07:05:35.959Z,14.50
2017-06-17T07:08:03.718Z,14.50
2017-06-17T07:10:31.329Z,14.50
2017-06-17T07:12:59.618Z,14.50
2017-06-17T07:15:27.186Z,14.50
2017-06-17T07:17:54.704Z,14.50
2017-06-17T07:20:22.261Z,14.50
2017-06-17T07:22:50.028Z,14.60
2017-06-17T07:25:17.549Z,14.60
2017-06-17T07:27:45.129Z,14.70
2017-06-17T07:30:12.691Z,14.60
2017-06-17T07:32:40.235Z,14.70
2017-06-17T07:35:07.751Z,14.90
2017-06-17T07:37:36.223Z,14.80
2017-06-17T07:40:03.838Z,14.80
2017-06-17T07:42:31.411Z,14.90
2017-06-17T07:44:58.954Z,14.80
2017-06-17T07:47:28.960Z,14.70
2017-06-17T07:52:39.238Z,14.90
2017-06-17T07:55:07.590Z,14.90
2017-06-17T07:57:35.137Z,14.90
2017-06-17T08:00:03.463Z,15.00
2017-06-17T08:02:30.973Z,15.00
2017-06-17T08:04:58.507Z,15.00
2017-06-17T08:07:26.017Z,15.00
2017-06-17T08:09:53.553Z,15.00
2017-06-17T08:12:21.830Z,15.30
2017-06-17T08:14:50.154Z,15.30
2017-06-17T08:17:17.728Z,15.30
2017-06-17T08:19:45.259Z,15.20
2017-06-17T08:22:25.567Z,15.20
2017-06-17T08:24:59.097Z,15.00
2017-06-17T08:27:32.775Z,15.00
2017-06-17T08:30:08.311Z,15.00
2017-06-17T08:32:40.285Z,15.20
2017-06-17T08:35:16.448Z,15.50
2017-06-17T08:37:56.280Z,15.40
2017-06-17T08:40:23.983Z,15.40
2017-06-17T08:42:59.361Z,15.30
2017-06-17T08:45:26.894Z,15.30
2017-06-17T08:47:54.439Z,15.40
2017-06-17T08:50:22.822Z,15.40
2017-06-17T08:52:51.143Z,15.70
2017-06-17T08:55:18.672Z,15.70
2017-06-17T08:57:46.215Z,15.90
2017-06-17T09:00:14.883Z,15.80
2017-06-17T09:02:42.439Z,15.80
2017-06-17T09:05:10.345Z,15.80
2017-06-17T09:07:37.968Z,15.60
2017-06-17T09:10:06.280Z,15.90
2017-06-17T09:12:34.053Z,15.90
2017-06-17T09:15:01.605Z,16.10
2017-06-17T09:17:29.126Z,16.10
2017-06-17T09:19:56.670Z,16.10
2017-06-17T09:22:24.183Z,16.20
2017-06-17T09:24:51.755Z,16.40
2017-06-17T09:27:19.317Z,16.30
2017-06-17T09:29:46.854Z,16.30
2017-06-17T09:32:14.475Z,16.30
2017-06-17T09:34:44.751Z,16.50
2017-06-17T09:37:12.721Z,16.30
2017-06-17T09:39:41.426Z,16.50
2017-06-17T09:42:09.012Z,16.70
2017-06-17T09:44:36.557Z,16.80
2017-06-17T09:47:04.662Z,16.90
2017-06-17T09:49:32.211Z,17.00
2017-06-17T09:51:59.719Z,16.90
2017-06-17T09:54:27.253Z,16.90
2017-06-17T09:56:54.786Z,17.20
2017-06-17T09:59:23.359Z,17.10
2017-06-17T10:01:50.874Z,17.10
2017-06-17T10:04:18.735Z,17.20
2017-06-17T10:06:47.581Z,17.30
2017-06-17T10:09:15.271Z,17.40
2017-06-17T10:11:42.823Z,17.60
2017-06-17T10:14:10.418Z,17.60
2017-06-17T10:16:41.318Z,17.40
2017-06-17T10:19:10.079Z,17.40
2017-06-17T10:21:37.808Z,17.40
2017-06-17T10:24:11.789Z,17.50
2017-06-17T10:26:40.252Z,17.40
2017-06-17T10:29:15.352Z,17.60
2017-06-17T10:31:42.924Z,17.80
2017-06-17T10:34:11.514Z,17.70
2017-06-17T10:36:39.148Z,17.90
2017-06-17T10:39:07.472Z,18.10
2017-06-17T10:41:35.001Z,18.20
2017-06-17T10:44:02.539Z,18.30
2017-06-17T10:46:30.049Z,18.30
2017-06-17T10:48:57.818Z,18.30
2017-06-17T10:51:25.319Z,18.20
2017-06-17T10:53:52.939Z,18.40
2017-06-17T10:56:20.455Z,18.50
2017-06-17T10:58:47.990Z,18.30
2017-06-17T11:01:16.263Z,18.30
2017-06-17T11:03:44.575Z,18.40
2017-06-17T11:06:12.150Z,18.40
2017-06-17T11:08:39.699Z,18.40
2017-06-17T11:11:07.215Z,18.30
2017-06-17T11:13:34.754Z,18.40
2017-06-17T11:16:02.289Z,18.60
2017-06-17T11:18:29.796Z,18.50
2017-06-17T11:20:57.351Z,18.60
2017-06-17T11:23:24.903Z,18.50
2017-06-17T11:25:52.459Z,18.60
2017-06-17T11:28:20.004Z,18.80
2017-06-17T11:30:47.763Z,18.80
2017-06-17T11:33:15.626Z,19.00
2017-06-17T11:35:43.157Z,19.20
2017-06-17T11:38:10.713Z,19.30
2017-06-17T11:40:38.515Z,19.40
2017-06-17T11:43:06.054Z,19.50
2017-06-17T11:45:33.615Z,19.60
2017-06-17T11:48:01.156Z,19.60
2017-06-17T11:50:33.465Z,19.50
2017-06-17T11:53:00.974Z,19.60
2017-06-17T11:55:29.287Z,19.70
2017-06-17T11:57:56.856Z,19.70
2017-06-17T12:00:24.367Z,19.90
2017-06-17T12:02:52.931Z,19.80
2017-06-17T12:05:20.472Z,19.70
2017-06-17T12:07:48.041Z,19.70
2017-06-17T12:10:15.627Z,19.70
2017-06-17T12:12:43.183Z,19.70
2017-06-17T12:15:10.703Z,19.90
2017-06-17T12:17:38.237Z,20.30
2017-06-17T12:20:06.021Z,20.50
2017-06-17T12:22:33.572Z,20.20
2017-06-17T12:25:01.087Z,20.10
2017-06-17T12:27:28.647Z,19.90
2017-06-17T12:29:56.166Z,20.10
2017-06-17T12:32:23.727Z,20.40
2017-06-17T12:34:51.490Z,20.40
2017-06-17T12:37:19.001Z,20.60
2017-06-17T12:39:47.312Z,21.10
2017-06-17T12:42:14.838Z,21.10
2017-06-17T12:44:42.468Z,21.30
2017-06-17T12:47:09.994Z,21.10
2017-06-17T12:49:38.504Z,21.20
2017-06-17T12:52:06.021Z,21.10
2017-06-17T12:54:33.608Z,21.20
2017-06-17T12:57:03.653Z,21.40
2017-06-17T12:59:31.267Z,21.30
2017-06-17T13:01:58.835Z,21.60
2017-06-17T13:04:26.355Z,21.80
2017-06-17T13:06:54.675Z,21.50
2017-06-17T13:09:22.951Z,21.50
2017-06-17T13:11:50.506Z,21.70
2017-06-17T13:14:18.023Z,21.80
2017-06-17T13:16:45.567Z,21.90
2017-06-17T13:19:13.189Z,21.80
2017-06-17T13:21:40.735Z,21.90
2017-06-17T13:24:08.636Z,21.80
2017-06-17T13:26:36.195Z,22.00
2017-06-17T13:29:03.753Z,22.10
2017-06-17T13:31:31.258Z,21.90
2017-06-17T13:34:01.010Z,21.90
2017-06-17T13:36:28.560Z,21.80
2017-06-17T13:38:56.067Z,21.60
2017-06-17T13:41:23.815Z,21.40
2017-06-17T13:43:51.341Z,21.20
2017-06-17T13:46:19.203Z,21.40
2017-06-17T13:48:46.735Z,21.70
2017-06-17T13:51:14.299Z,21.80
2017-06-17T13:53:42.834Z,21.70
2017-06-17T13:56:10.388Z,21.70
2017-06-17T13:58:37.948Z,21.70
2017-06-17T14:01:05.499Z,21.60
2017-06-17T14:03:33.236Z,21.40
2017-06-17T14:06:00.799Z,21.00
2017-06-17T14:08:28.309Z,21.20
2017-06-17T14:10:55.841Z,21.40
2017-06-17T14:13:23.352Z,21.50
2017-06-17T14:15:51.718Z,21.20
2017-06-17T14:18:19.267Z,21.20
2017-06-17T14:21:01.700Z,21.10
2017-06-17T14:23:29.307Z,21.10
2017-06-17T14:25:57.095Z,21.10
2017-06-17T14:28:24.631Z,21.20
2017-06-17T14:30:52.520Z,21.10
2017-06-17T14:33:20.052Z,21.10
2017-06-17T14:35:47.616Z,21.20
2017-06-17T14:38:15.134Z,21.20
2017-06-17T14:40:42.638Z,21.30
2017-06-17T14:43:10.521Z,21.40
2017-06-17T14:45:38.052Z,21.40
2017-06-17T14:48:05.597Z,21.40
2017-06-17T14:50:33.102Z,21.60
2017-06-17T14:53:00.659Z,21.90
2017-06-17T14:55:28.184Z,22.10
2017-06-17T14:57:55.726Z,22.30
2017-06-17T15:00:23.246Z,22.50
2017-06-17T15:02:50.792Z,22.50
2017-06-17T15:05:18.345Z,22.40
2017-06-17T15:07:45.895Z,22.00
2017-06-17T15:10:13.419Z,22.00
2017-06-17T15:12:40.970Z,22.20
2017-06-17T15:15:09.288Z,22.00
2017-06-17T15:17:36.812Z,21.90
2017-06-17T15:20:04.367Z,22.10
2017-06-17T15:22:32.705Z,23.10
2017-06-17T15:25:00.256Z,23.10
2017-06-17T15:27:27.764Z,22.60
2017-06-17T15:29:56.088Z,22.40
2017-06-17T15:32:23.624Z,22.40
2017-06-17T15:34:51.212Z,22.60
2017-06-17T15:37:18.803Z,23.20
2017-06-17T15:39:46.313Z,23.10
2017-06-17T15:42:13.828Z,23.10
2017-06-17T15:44:41.542Z,23.60
2017-06-17T15:47:25.290Z,23.60
2017-06-17T15:49:53.063Z,23.60
2017-06-17T15:52:23.117Z,23.40
2017-06-17T15:54:52.105Z,22.70
2017-06-17T15:57:20.489Z,22.60
2017-06-17T15:59:48.154Z,22.50
2017-06-17T16:02:19.799Z,22.50
2017-06-17T16:04:47.481Z,22.50
2017-06-17T16:07:16.122Z,22.40
2017-06-17T16:09:43.810Z,22.30
2017-06-17T16:12:11.363Z,22.50
2017-06-17T16:14:41.237Z,23.10
2017-06-17T16:17:11.236Z,23.80
2017-06-17T16:19:38.791Z,23.90
2017-06-17T16:22:06.336Z,23.50
2017-06-17T16:24:34.012Z,23.40
2017-06-17T16:27:01.532Z,23.40
2017-06-17T16:29:29.128Z,23.20
2017-06-17T16:31:57.271Z,23.40
2017-06-17T16:34:28.009Z,24.30
2017-06-17T16:36:56.962Z,24.10
2017-06-17T16:39:24.544Z,23.60
2017-06-17T16:41:52.057Z,23.10
2017-06-17T16:44:19.607Z,23.60
2017-06-17T16:46:50.915Z,25.70
2017-06-17T16:49:20.799Z,25.60
2017-06-17T16:51:48.857Z,27.00
2017-06-17T16:54:16.624Z,27.10
2017-06-17T16:56:44.222Z,27.20
2017-06-17T16:59:11.733Z,27.70
2017-06-17T17:01:40.448Z,26.90
2017-06-17T17:04:08.672Z,26.90
2017-06-17T17:06:36.248Z,25.60
2017-06-17T17:09:04.886Z,24.00
2017-06-17T17:11:32.440Z,24.00
2017-06-17T17:14:02.343Z,23.80
2017-06-17T17:16:30.117Z,23.40
2017-06-17T17:18:58.987Z,22.90
2017-06-17T17:21:28.011Z,22.80
2017-06-17T17:23:55.656Z,22.70
2017-06-17T17:26:23.178Z,22.80
2017-06-17T17:28:51.498Z,22.60
2017-06-17T17:31:19.015Z,22.50
2017-06-17T17:33:47.332Z,22.50
2017-06-17T17:36:14.894Z,22.40
2017-06-17T17:38:42.455Z,22.30
2017-06-17T17:41:09.966Z,22.10
2017-06-17T17:43:39.231Z,22.20
2017-06-17T17:46:06.771Z,22.20
2017-06-17T17:48:34.384Z,22.40
2017-06-17T17:51:02.723Z,23.90
2017-06-17T17:53:30.292Z,23.90
2017-06-17T17:55:58.100Z,25.40
2017-06-17T17:58:25.624Z,26.60
2017-06-17T18:00:53.241Z,26.30
2017-06-17T18:03:20.786Z,25.10
2017-06-17T18:05:48.759Z,23.80
2017-06-17T18:08:17.158Z,24.10
2017-06-17T18:10:44.725Z,24.10
2017-06-17T18:13:12.274Z,25.30
2017-06-17T18:15:39.969Z,24.00
2017-06-17T18:18:07.515Z,23.30
2017-06-17T18:20:35.028Z,22.70
2017-06-17T18:23:03.500Z,22.20
2017-06-17T18:25:31.023Z,22.10
2017-06-17T18:27:58.545Z,22.20
2017-06-17T18:30:28.461Z,22.10
2017-06-17T18:32:57.391Z,21.90
2017-06-17T18:35:25.425Z,21.80
2017-06-17T18:37:53.056Z,21.80
2017-06-17T18:40:21.532Z,22.30
2017-06-17T18:42:50.164Z,22.70
2017-06-17T18:45:18.811Z,22.80
2017-06-17T18:47:48.750Z,22.70
2017-06-17T18:50:16.622Z,22.70
2017-06-17T18:52:44.373Z,22.30
2017-06-17T18:55:12.916Z,22.20
2017-06-17T18:57:40.455Z,22.00
2017-06-17T19:00:08.531Z,21.70
2017-06-17T19:02:36.207Z,21.60
2017-06-17T19:05:03.716Z,21.60
2017-06-17T19:07:33.110Z,21.70
2017-06-17T19:10:00.644Z,22.10
2017-06-17T19:12:28.331Z,22.30
2017-06-17T19:14:55.918Z,22.30
2017-06-17T19:17:23.426Z,21.80
2017-06-17T19:19:50.979Z,21.40
2017-06-17T19:22:18.500Z,21.00
2017-06-17T19:24:46.010Z,20.80
2017-06-17T19:27:14.336Z,20.20
2017-06-17T19:29:42.124Z,20.10
2017-06-17T19:32:09.667Z,19.90
2017-06-17T19:34:37.183Z,19.60
2017-06-17T19:37:05.506Z,19.30
2017-06-17T19:39:33.023Z,19.30
2017-06-17T19:42:00.583Z,19.20
2017-06-17T19:44:28.463Z,19.10
2017-06-17T19:46:56.006Z,19.10
2017-06-17T19:49:24.303Z,19.00
2017-06-17T19:51:52.228Z,19.00
2017-06-17T19:54:19.759Z,19.00
2017-06-17T19:56:47.344Z,19.00
2017-06-17T19:59:14.852Z,19.00
2017-06-17T20:01:42.365Z,19.00
2017-06-17T20:04:09.967Z,18.90
2017-06-17T20:06:39.328Z,18.80
2017-06-17T20:09:07.003Z,18.80
2017-06-17T20:11:34.767Z,18.80
2017-06-17T20:14:02.395Z,18.70
2017-06-17T20:16:31.118Z,18.60
2017-06-17T20:18:59.510Z,18.50
2017-06-17T20:21:45.746Z,18.40
2017-06-17T20:24:19.260Z,18.30
2017-06-17T20:26:46.817Z,18.20
2017-06-17T20:29:14.427Z,18.20
2017-06-17T20:31:41.970Z,18.20
2017-06-17T20:34:09.652Z,18.20
2017-06-17T20:36:38.007Z,18.30
2017-06-17T20:39:05.532Z,18.30
2017-06-17T20:41:33.058Z,18.30
2017-06-17T20:44:01.405Z,18.20
2017-06-17T20:46:28.995Z,18.20
2017-06-17T20:48:57.312Z,18.00
2017-06-17T20:51:24.818Z,18.00
2017-06-17T20:53:52.534Z,17.90
2017-06-17T20:56:20.052Z,17.90
2017-06-17T20:58:47.602Z,17.80
2017-06-17T21:01:15.183Z,17.80
2017-06-17T21:03:42.964Z,17.70
2017-06-17T21:06:10.486Z,17.70
2017-06-17T21:08:38.035Z,17.60
2017-06-17T21:11:05.795Z,17.50
2017-06-17T21:13:33.474Z,17.40
2017-06-17T21:16:01.843Z,17.30
2017-06-17T21:18:31.069Z,17.20
2017-06-17T21:20:59.883Z,17.10
2017-06-17T21:23:27.504Z,17.10
2017-06-17T21:25:56.204Z,17.00
2017-06-17T21:28:24.564Z,16.90
2017-06-17T21:30:52.191Z,16.90
2017-06-17T21:33:19.751Z,16.90
2017-06-17T21:35:47.673Z,16.90
2017-06-17T21:38:15.387Z,16.90
2017-06-17T21:40:43.119Z,16.90
2017-06-17T21:43:11.493Z,16.90
2017-06-17T21:45:39.252Z,16.90
2017-06-17T21:48:08.083Z,16.90
2017-06-17T21:50:35.715Z,16.90
2017-06-17T21:53:04.165Z,16.90
2017-06-17T21:55:32.060Z,16.90
2017-06-17T21:57:59.606Z,16.80
2017-06-17T22:00:27.191Z,16.80
2017-06-17T22:02:54.724Z,16.60
2017-06-17T22:05:22.255Z,16.60
2017-06-17T22:07:49.806Z,16.50
2017-06-17T22:10:17.383Z,16.40
2017-06-17T22:12:45.129Z,16.30
2017-06-17T22:15:12.720Z,16.20
2017-06-17T22:17:40.744Z,16.20
2017-06-17T22:20:08.284Z,16.20
2017-06-17T22:22:35.920Z,16.10
2017-06-17T22:25:03.508Z,16.00
2017-06-17T22:27:31.060Z,16.00
2017-06-17T22:29:58.800Z,16.00
2017-06-17T22:32:27.326Z,16.00
2017-06-17T22:34:54.932Z,16.00
2017-06-17T22:37:22.600Z,16.00
2017-06-17T22:39:50.880Z,16.10
2017-06-17T22:42:18.472Z,16.00
2017-06-17T22:44:46.179Z,16.00
2017-06-17T22:47:15.610Z,16.00
2017-06-17T22:49:43.944Z,16.00
2017-06-17T22:52:12.858Z,16.00
2017-06-17T22:54:40.659Z,15.90
2017-06-17T22:57:09.237Z,15.90
2017-06-17T22:59:37.195Z,15.90
2017-06-17T23:02:04.724Z,16.00
2017-06-17T23:04:32.287Z,15.90
2017-06-17T23:07:00.151Z,15.80
2017-06-17T23:09:27.684Z,15.80
2017-06-17T23:11:55.459Z,15.70
2017-06-17T23:14:23.027Z,15.70
2017-06-17T23:16:50.572Z,15.70
2017-06-17T23:19:18.102Z,15.70
2017-06-17T23:21:45.660Z,15.70
2017-06-17T23:24:13.250Z,15.70
2017-06-17T23:26:40.803Z,15.70
2017-06-17T23:29:08.351Z,15.70
2017-06-17T23:31:35.911Z,15.60
2017-06-17T23:34:03.471Z,15.70
2017-06-17T23:36:31.043Z,15.70
2017-06-17T23:38:58.603Z,15.70
2017-06-17T23:41:26.133Z,15.60
2017-06-17T23:43:53.777Z,15.60
2017-06-17T23:46:21.299Z,15.60
2017-06-17T23:48:48.880Z,15.60
2017-06-17T23:51:16.446Z,15.50
2017-06-17T23:53:43.994Z,15.40
2017-06-17T23:56:11.623Z,15.30
2017-06-17T23:58:39.251Z,15.30
